sensor_id;sensor_type;location;lat;lon;timestamp;P1;durP1;ratioP1;P2;durP2;ratioP2
76065;SDS011;64763;48.928;8.474;2022-12-18T00:00:46;49.65;;;18.83;;
76065;SDS011;64763;48.928;8.474;2022-12-18T00:03:13;36.90;;;17.33;;
76065;SDS011;64763;48.928;8.474;2022-12-18T00:05:49;39.22;;;16.27;;
76065;SDS011;64763;48.928;8.474;2022-12-18T00:08:14;31.35;;;15.27;;
76065;SDS011;64763;48.928;8.474;2022-12-18T00:10:40;32.22;;;15.10;;
76065;SDS011;64763;48.928;8.474;2022-12-18T00:13:05;34.30;;;16.98;;
76065;SDS011;64763;48.928;8.474;2022-12-18T00:15:32;36.22;;;15.85;;
76065;SDS011;64763;48.928;8.474;2022-12-18T00:17:59;39.40;;;16.13;;
76065;SDS011;64763;48.928;8.474;2022-12-18T00:20:24;28.75;;;13.60;;
76065;SDS011;64763;48.928;8.474;2022-12-18T00:22:51;33.70;;;14.35;;
76065;SDS011;64763;48.928;8.474;2022-12-18T00:25:17;27.48;;;14.15;;
76065;SDS011;64763;48.928;8.474;2022-12-18T00:27:42;26.80;;;12.85;;
76065;SDS011;64763;48.928;8.474;2022-12-18T00:30:08;34.15;;;13.00;;
76065;SDS011;64763;48.928;8.474;2022-12-18T00:32:33;33.38;;;13.32;;
76065;SDS011;64763;48.928;8.474;2022-12-18T00:34:59;26.08;;;13.13;;
76065;SDS011;64763;48.928;8.474;2022-12-18T00:37:24;30.17;;;13.90;;
76065;SDS011;64763;48.928;8.474;2022-12-18T00:39:49;29.63;;;12.18;;
76065;SDS011;64763;48.928;8.474;2022-12-18T00:42:15;28.38;;;13.18;;
76065;SDS011;64763;48.928;8.474;2022-12-18T00:44:59;24.10;;;10.77;;
76065;SDS011;64763;48.928;8.474;2022-12-18T00:47:24;21.85;;;10.18;;
76065;SDS011;64763;48.928;8.474;2022-12-18T00:49:49;29.83;;;13.73;;
76065;SDS011;64763;48.928;8.474;2022-12-18T00:52:14;29.13;;;13.23;;
76065;SDS011;64763;48.928;8.474;2022-12-18T00:54:40;32.47;;;12.93;;
76065;SDS011;64763;48.928;8.474;2022-12-18T00:57:05;27.50;;;12.40;;
76065;SDS011;64763;48.928;8.474;2022-12-18T00:59:30;27.63;;;12.73;;
76065;SDS011;64763;48.928;8.474;2022-12-18T01:01:56;22.25;;;11.82;;
76065;SDS011;64763;48.928;8.474;2022-12-18T01:04:21;29.02;;;12.90;;
76065;SDS011;64763;48.928;8.474;2022-12-18T01:06:47;24.90;;;12.70;;
76065;SDS011;64763;48.928;8.474;2022-12-18T01:09:12;29.88;;;15.00;;
76065;SDS011;64763;48.928;8.474;2022-12-18T01:11:37;24.85;;;11.05;;
76065;SDS011;64763;48.928;8.474;2022-12-18T01:14:03;26.02;;;13.02;;
76065;SDS011;64763;48.928;8.474;2022-12-18T01:16:28;24.25;;;11.30;;
76065;SDS011;64763;48.928;8.474;2022-12-18T01:18:54;19.50;;;10.93;;
76065;SDS011;64763;48.928;8.474;2022-12-18T01:21:20;21.70;;;10.23;;
76065;SDS011;64763;48.928;8.474;2022-12-18T01:23:45;25.55;;;11.77;;
76065;SDS011;64763;48.928;8.474;2022-12-18T01:26:13;31.58;;;11.65;;
76065;SDS011;64763;48.928;8.474;2022-12-18T01:28:39;25.88;;;11.10;;
76065;SDS011;64763;48.928;8.474;2022-12-18T01:31:12;24.40;;;11.65;;
76065;SDS011;64763;48.928;8.474;2022-12-18T01:33:44;25.42;;;10.88;;
76065;SDS011;64763;48.928;8.474;2022-12-18T01:36:26;23.45;;;10.60;;
76065;SDS011;64763;48.928;8.474;2022-12-18T01:38:53;20.42;;;9.25;;
76065;SDS011;64763;48.928;8.474;2022-12-18T01:41:23;28.13;;;11.70;;
76065;SDS011;64763;48.928;8.474;2022-12-18T01:49:56;18.63;;;8.77;;
76065;SDS011;64763;48.928;8.474;2022-12-18T01:52:22;21.77;;;9.90;;
76065;SDS011;64763;48.928;8.474;2022-12-18T01:54:50;21.02;;;8.93;;
76065;SDS011;64763;48.928;8.474;2022-12-18T01:57:16;20.83;;;8.63;;
76065;SDS011;64763;48.928;8.474;2022-12-18T01:59:41;19.67;;;10.43;;
76065;SDS011;64763;48.928;8.474;2022-12-18T02:02:08;21.20;;;10.32;;
76065;SDS011;64763;48.928;8.474;2022-12-18T02:04:33;27.92;;;10.75;;
76065;SDS011;64763;48.928;8.474;2022-12-18T02:09:41;18.17;;;8.75;;
76065;SDS011;64763;48.928;8.474;2022-12-18T02:12:13;18.55;;;9.45;;
76065;SDS011;64763;48.928;8.474;2022-12-18T02:14:53;25.10;;;10.27;;
76065;SDS011;64763;48.928;8.474;2022-12-18T02:17:23;23.25;;;10.15;;
76065;SDS011;64763;48.928;8.474;2022-12-18T02:20:08;20.73;;;9.25;;
76065;SDS011;64763;48.928;8.474;2022-12-18T02:28:11;20.85;;;8.50;;
76065;SDS011;64763;48.928;8.474;2022-12-18T02:30:38;15.88;;;8.10;;
76065;SDS011;64763;48.928;8.474;2022-12-18T02:33:05;18.10;;;9.32;;
76065;SDS011;64763;48.928;8.474;2022-12-18T02:35:32;23.25;;;10.57;;
76065;SDS011;64763;48.928;8.474;2022-12-18T02:37:58;20.88;;;9.40;;
76065;SDS011;64763;48.928;8.474;2022-12-18T02:40:24;21.60;;;8.77;;
76065;SDS011;64763;48.928;8.474;2022-12-18T02:42:51;16.45;;;8.50;;
76065;SDS011;64763;48.928;8.474;2022-12-18T02:45:17;17.85;;;8.35;;
76065;SDS011;64763;48.928;8.474;2022-12-18T02:47:43;20.90;;;9.52;;
76065;SDS011;64763;48.928;8.474;2022-12-18T02:55:51;24.85;;;8.73;;
76065;SDS011;64763;48.928;8.474;2022-12-18T02:58:37;18.60;;;8.10;;
76065;SDS011;64763;48.928;8.474;2022-12-18T03:01:09;19.48;;;9.07;;
76065;SDS011;64763;48.928;8.474;2022-12-18T03:06:08;21.13;;;9.15;;
76065;SDS011;64763;48.928;8.474;2022-12-18T03:08:39;22.27;;;8.77;;
76065;SDS011;64763;48.928;8.474;2022-12-18T03:11:08;22.50;;;9.85;;
76065;SDS011;64763;48.928;8.474;2022-12-18T03:16:18;28.27;;;11.18;;
76065;SDS011;64763;48.928;8.474;2022-12-18T03:18:48;25.38;;;11.45;;
76065;SDS011;64763;48.928;8.474;2022-12-18T03:21:17;28.25;;;10.00;;
76065;SDS011;64763;48.928;8.474;2022-12-18T03:23:47;26.42;;;11.55;;
76065;SDS011;64763;48.928;8.474;2022-12-18T03:26:14;34.03;;;13.40;;
76065;SDS011;64763;48.928;8.474;2022-12-18T03:28:55;23.42;;;11.02;;
76065;SDS011;64763;48.928;8.474;2022-12-18T03:31:24;32.10;;;12.20;;
76065;SDS011;64763;48.928;8.474;2022-12-18T03:33:55;28.00;;;10.35;;
76065;SDS011;64763;48.928;8.474;2022-12-18T03:36:22;30.50;;;12.48;;
76065;SDS011;64763;48.928;8.474;2022-12-18T03:38:48;27.40;;;11.82;;
76065;SDS011;64763;48.928;8.474;2022-12-18T03:46:27;26.65;;;11.90;;
76065;SDS011;64763;48.928;8.474;2022-12-18T03:52:10;28.35;;;10.13;;
76065;SDS011;64763;48.928;8.474;2022-12-18T03:54:38;32.42;;;11.05;;
76065;SDS011;64763;48.928;8.474;2022-12-18T03:57:09;26.52;;;11.02;;
76065;SDS011;64763;48.928;8.474;2022-12-18T03:59:39;29.55;;;13.27;;
76065;SDS011;64763;48.928;8.474;2022-12-18T04:02:05;23.52;;;9.60;;
76065;SDS011;64763;48.928;8.474;2022-12-18T04:04:32;21.25;;;9.57;;
76065;SDS011;64763;48.928;8.474;2022-12-18T04:06:59;19.40;;;9.25;;
76065;SDS011;64763;48.928;8.474;2022-12-18T04:09:24;20.70;;;9.55;;
76065;SDS011;64763;48.928;8.474;2022-12-18T04:11:51;29.23;;;11.35;;
76065;SDS011;64763;48.928;8.474;2022-12-18T04:14:17;16.95;;;9.25;;
76065;SDS011;64763;48.928;8.474;2022-12-18T04:16:42;32.58;;;13.10;;
76065;SDS011;64763;48.928;8.474;2022-12-18T04:19:07;24.02;;;10.48;;
76065;SDS011;64763;48.928;8.474;2022-12-18T04:21:33;25.20;;;9.35;;
76065;SDS011;64763;48.928;8.474;2022-12-18T04:23:58;21.92;;;9.98;;
76065;SDS011;64763;48.928;8.474;2022-12-18T04:26:23;18.55;;;8.13;;
76065;SDS011;64763;48.928;8.474;2022-12-18T04:28:49;15.68;;;7.05;;
76065;SDS011;64763;48.928;8.474;2022-12-18T04:31:14;16.75;;;8.13;;
76065;SDS011;64763;48.928;8.474;2022-12-18T04:33:39;16.77;;;7.45;;
76065;SDS011;64763;48.928;8.474;2022-12-18T04:36:05;14.30;;;7.05;;
76065;SDS011;64763;48.928;8.474;2022-12-18T04:38:30;16.02;;;6.80;;
76065;SDS011;64763;48.928;8.474;2022-12-18T04:40:56;12.52;;;6.22;;
76065;SDS011;64763;48.928;8.474;2022-12-18T04:43:21;20.17;;;7.07;;
76065;SDS011;64763;48.928;8.474;2022-12-18T04:45:46;23.83;;;10.80;;
76065;SDS011;64763;48.928;8.474;2022-12-18T04:48:12;32.08;;;11.95;;
76065;SDS011;64763;48.928;8.474;2022-12-18T04:50:40;20.13;;;9.65;;
76065;SDS011;64763;48.928;8.474;2022-12-18T04:53:05;34.90;;;11.65;;
76065;SDS011;64763;48.928;8.474;2022-12-18T04:55:30;30.30;;;11.63;;
76065;SDS011;64763;48.928;8.474;2022-12-18T04:57:56;37.65;;;13.00;;
76065;SDS011;64763;48.928;8.474;2022-12-18T05:00:21;22.42;;;11.18;;
76065;SDS011;64763;48.928;8.474;2022-12-18T05:02:47;30.35;;;11.18;;
76065;SDS011;64763;48.928;8.474;2022-12-18T05:05:12;43.90;;;11.13;;
76065;SDS011;64763;48.928;8.474;2022-12-18T05:07:38;22.85;;;9.90;;
76065;SDS011;64763;48.928;8.474;2022-12-18T05:10:03;28.35;;;10.13;;
76065;SDS011;64763;48.928;8.474;2022-12-18T05:12:30;29.30;;;8.95;;
76065;SDS011;64763;48.928;8.474;2022-12-18T05:14:56;16.40;;;9.00;;
76065;SDS011;64763;48.928;8.474;2022-12-18T05:17:21;67.45;;;12.02;;
76065;SDS011;64763;48.928;8.474;2022-12-18T05:19:46;53.58;;;13.15;;
76065;SDS011;64763;48.928;8.474;2022-12-18T05:22:12;31.65;;;10.40;;
76065;SDS011;64763;48.928;8.474;2022-12-18T05:24:37;28.02;;;10.93;;
76065;SDS011;64763;48.928;8.474;2022-12-18T05:27:02;26.17;;;9.18;;
76065;SDS011;64763;48.928;8.474;2022-12-18T05:29:28;36.95;;;12.02;;
76065;SDS011;64763;48.928;8.474;2022-12-18T05:31:53;37.00;;;12.75;;
76065;SDS011;64763;48.928;8.474;2022-12-18T05:34:19;32.92;;;11.38;;
76065;SDS011;64763;48.928;8.474;2022-12-18T05:36:44;69.22;;;14.68;;
76065;SDS011;64763;48.928;8.474;2022-12-18T05:39:09;33.28;;;13.23;;
76065;SDS011;64763;48.928;8.474;2022-12-18T05:41:35;29.33;;;12.25;;
76065;SDS011;64763;48.928;8.474;2022-12-18T05:44:00;35.55;;;14.13;;
76065;SDS011;64763;48.928;8.474;2022-12-18T05:46:25;31.42;;;11.88;;
76065;SDS011;64763;48.928;8.474;2022-12-18T05:48:51;37.38;;;12.55;;
76065;SDS011;64763;48.928;8.474;2022-12-18T05:51:17;44.95;;;12.95;;
76065;SDS011;64763;48.928;8.474;2022-12-18T05:53:44;29.63;;;11.55;;
76065;SDS011;64763;48.928;8.474;2022-12-18T05:56:12;43.97;;;14.38;;
76065;SDS011;64763;48.928;8.474;2022-12-18T05:58:44;37.40;;;12.68;;
76065;SDS011;64763;48.928;8.474;2022-12-18T06:01:14;31.15;;;12.63;;
76065;SDS011;64763;48.928;8.474;2022-12-18T06:03:41;32.70;;;13.35;;
76065;SDS011;64763;48.928;8.474;2022-12-18T06:06:21;32.90;;;12.40;;
76065;SDS011;64763;48.928;8.474;2022-12-18T06:08:47;28.50;;;13.10;;
76065;SDS011;64763;48.928;8.474;2022-12-18T06:11:13;26.20;;;12.40;;
76065;SDS011;64763;48.928;8.474;2022-12-18T06:13:41;23.20;;;10.38;;
76065;SDS011;64763;48.928;8.474;2022-12-18T06:16:07;27.42;;;11.32;;
76065;SDS011;64763;48.928;8.474;2022-12-18T06:18:33;39.13;;;13.77;;
76065;SDS011;64763;48.928;8.474;2022-12-18T06:20:59;34.72;;;13.60;;
76065;SDS011;64763;48.928;8.474;2022-12-18T06:23:24;37.15;;;12.85;;
76065;SDS011;64763;48.928;8.474;2022-12-18T06:25:50;30.00;;;13.10;;
76065;SDS011;64763;48.928;8.474;2022-12-18T06:28:15;32.22;;;13.80;;
76065;SDS011;64763;48.928;8.474;2022-12-18T06:30:44;36.75;;;13.68;;
76065;SDS011;64763;48.928;8.474;2022-12-18T06:33:10;32.42;;;11.70;;
76065;SDS011;64763;48.928;8.474;2022-12-18T06:35:35;29.23;;;11.48;;
76065;SDS011;64763;48.928;8.474;2022-12-18T06:38:01;39.28;;;14.30;;
76065;SDS011;64763;48.928;8.474;2022-12-18T06:40:26;41.22;;;14.77;;
76065;SDS011;64763;48.928;8.474;2022-12-18T06:42:52;38.28;;;13.35;;
76065;SDS011;64763;48.928;8.474;2022-12-18T06:45:17;29.35;;;13.10;;
76065;SDS011;64763;48.928;8.474;2022-12-18T06:47:42;34.92;;;13.23;;
76065;SDS011;64763;48.928;8.474;2022-12-18T06:50:08;35.17;;;13.13;;
76065;SDS011;64763;48.928;8.474;2022-12-18T06:52:33;32.17;;;15.18;;
76065;SDS011;64763;48.928;8.474;2022-12-18T06:54:59;33.75;;;14.68;;
76065;SDS011;64763;48.928;8.474;2022-12-18T06:57:24;35.28;;;13.50;;
76065;SDS011;64763;48.928;8.474;2022-12-18T06:59:50;34.17;;;12.90;;
76065;SDS011;64763;48.928;8.474;2022-12-18T07:02:15;37.58;;;13.88;;
76065;SDS011;64763;48.928;8.474;2022-12-18T07:04:40;37.50;;;14.20;;
76065;SDS011;64763;48.928;8.474;2022-12-18T07:07:05;43.38;;;14.73;;
76065;SDS011;64763;48.928;8.474;2022-12-18T07:09:31;38.30;;;15.38;;
76065;SDS011;64763;48.928;8.474;2022-12-18T07:11:56;44.28;;;14.85;;
76065;SDS011;64763;48.928;8.474;2022-12-18T07:14:21;38.35;;;14.60;;
76065;SDS011;64763;48.928;8.474;2022-12-18T07:16:47;38.40;;;15.45;;
76065;SDS011;64763;48.928;8.474;2022-12-18T07:19:13;33.58;;;14.60;;
76065;SDS011;64763;48.928;8.474;2022-12-18T07:21:38;41.63;;;14.48;;
76065;SDS011;64763;48.928;8.474;2022-12-18T07:24:04;33.95;;;13.38;;
76065;SDS011;64763;48.928;8.474;2022-12-18T07:26:29;49.97;;;19.10;;
76065;SDS011;64763;48.928;8.474;2022-12-18T07:28:57;45.78;;;17.13;;
76065;SDS011;64763;48.928;8.474;2022-12-18T07:31:23;38.92;;;15.00;;
76065;SDS011;64763;48.928;8.474;2022-12-18T07:33:49;38.63;;;15.55;;
76065;SDS011;64763;48.928;8.474;2022-12-18T07:38:40;36.25;;;13.20;;
76065;SDS011;64763;48.928;8.474;2022-12-18T07:41:07;33.97;;;14.40;;
76065;SDS011;64763;48.928;8.474;2022-12-18T07:43:34;29.67;;;13.02;;
76065;SDS011;64763;48.928;8.474;2022-12-18T07:45:59;30.20;;;12.02;;
76065;SDS011;64763;48.928;8.474;2022-12-18T07:48:25;27.77;;;12.00;;
76065;SDS011;64763;48.928;8.474;2022-12-18T07:50:50;28.08;;;11.15;;
76065;SDS011;64763;48.928;8.474;2022-12-18T07:53:15;32.28;;;14.48;;
76065;SDS011;64763;48.928;8.474;2022-12-18T07:55:41;32.35;;;12.43;;
76065;SDS011;64763;48.928;8.474;2022-12-18T07:58:07;29.95;;;13.13;;
76065;SDS011;64763;48.928;8.474;2022-12-18T08:00:33;29.38;;;12.57;;
76065;SDS011;64763;48.928;8.474;2022-12-18T08:02:59;29.40;;;13.02;;
76065;SDS011;64763;48.928;8.474;2022-12-18T08:05:24;32.53;;;11.02;;
76065;SDS011;64763;48.928;8.474;2022-12-18T08:07:50;36.63;;;13.20;;
76065;SDS011;64763;48.928;8.474;2022-12-18T08:10:15;40.53;;;12.38;;
76065;SDS011;64763;48.928;8.474;2022-12-18T08:12:40;34.13;;;13.55;;
76065;SDS011;64763;48.928;8.474;2022-12-18T08:15:06;42.65;;;13.45;;
76065;SDS011;64763;48.928;8.474;2022-12-18T08:17:32;44.47;;;12.80;;
76065;SDS011;64763;48.928;8.474;2022-12-18T08:19:57;37.88;;;13.43;;
76065;SDS011;64763;48.928;8.474;2022-12-18T08:22:22;44.30;;;15.35;;
76065;SDS011;64763;48.928;8.474;2022-12-18T08:24:48;42.95;;;13.70;;
76065;SDS011;64763;48.928;8.474;2022-12-18T08:27:13;34.88;;;13.63;;
76065;SDS011;64763;48.928;8.474;2022-12-18T08:29:38;39.47;;;13.90;;
76065;SDS011;64763;48.928;8.474;2022-12-18T08:32:04;42.38;;;14.60;;
76065;SDS011;64763;48.928;8.474;2022-12-18T08:34:29;39.38;;;14.50;;
76065;SDS011;64763;48.928;8.474;2022-12-18T08:36:55;35.72;;;15.02;;
76065;SDS011;64763;48.928;8.474;2022-12-18T08:39:20;37.13;;;14.25;;
76065;SDS011;64763;48.928;8.474;2022-12-18T08:41:45;30.95;;;14.70;;
76065;SDS011;64763;48.928;8.474;2022-12-18T08:47:02;40.38;;;18.67;;
76065;SDS011;64763;48.928;8.474;2022-12-18T08:49:28;44.97;;;16.38;;
76065;SDS011;64763;48.928;8.474;2022-12-18T08:51:56;47.40;;;15.32;;
76065;SDS011;64763;48.928;8.474;2022-12-18T08:54:22;47.05;;;15.23;;
76065;SDS011;64763;48.928;8.474;2022-12-18T08:56:47;43.63;;;17.33;;
76065;SDS011;64763;48.928;8.474;2022-12-18T08:59:14;44.53;;;16.13;;
76065;SDS011;64763;48.928;8.474;2022-12-18T09:01:40;45.22;;;16.35;;
76065;SDS011;64763;48.928;8.474;2022-12-18T09:04:05;41.25;;;16.80;;
76065;SDS011;64763;48.928;8.474;2022-12-18T09:06:31;44.25;;;15.57;;
76065;SDS011;64763;48.928;8.474;2022-12-18T09:08:56;51.33;;;16.13;;
76065;SDS011;64763;48.928;8.474;2022-12-18T09:11:23;54.08;;;17.90;;
76065;SDS011;64763;48.928;8.474;2022-12-18T09:13:50;46.83;;;18.38;;
76065;SDS011;64763;48.928;8.474;2022-12-18T09:16:15;37.72;;;16.77;;
76065;SDS011;64763;48.928;8.474;2022-12-18T09:18:41;44.60;;;17.85;;
76065;SDS011;64763;48.928;8.474;2022-12-18T09:21:07;44.42;;;16.40;;
76065;SDS011;64763;48.928;8.474;2022-12-18T09:23:36;42.05;;;15.80;;
76065;SDS011;64763;48.928;8.474;2022-12-18T09:26:02;48.53;;;17.63;;
76065;SDS011;64763;48.928;8.474;2022-12-18T09:28:27;58.75;;;19.80;;
76065;SDS011;64763;48.928;8.474;2022-12-18T09:30:53;53.60;;;21.77;;
76065;SDS011;64763;48.928;8.474;2022-12-18T09:33:18;48.00;;;18.58;;
76065;SDS011;64763;48.928;8.474;2022-12-18T09:35:44;49.72;;;15.90;;
76065;SDS011;64763;48.928;8.474;2022-12-18T09:38:14;41.50;;;17.13;;
76065;SDS011;64763;48.928;8.474;2022-12-18T09:40:43;39.78;;;14.15;;
76065;SDS011;64763;48.928;8.474;2022-12-18T09:43:17;32.65;;;13.30;;
76065;SDS011;64763;48.928;8.474;2022-12-18T09:45:47;42.05;;;17.13;;
76065;SDS011;64763;48.928;8.474;2022-12-18T09:48:21;39.03;;;14.95;;
76065;SDS011;64763;48.928;8.474;2022-12-18T09:50:49;35.15;;;13.70;;
76065;SDS011;64763;48.928;8.474;2022-12-18T09:55:42;37.45;;;13.52;;
76065;SDS011;64763;48.928;8.474;2022-12-18T10:00:57;43.92;;;16.60;;
76065;SDS011;64763;48.928;8.474;2022-12-18T10:03:23;44.72;;;15.93;;
76065;SDS011;64763;48.928;8.474;2022-12-18T10:11:40;37.25;;;17.30;;
76065;SDS011;64763;48.928;8.474;2022-12-18T10:20:42;43.03;;;18.33;;
76065;SDS011;64763;48.928;8.474;2022-12-18T10:22:46;39.70;;;16.13;;
76065;SDS011;64763;48.928;8.474;2022-12-18T10:25:21;34.63;;;14.27;;
76065;SDS011;64763;48.928;8.474;2022-12-18T10:27:47;54.75;;;20.00;;
76065;SDS011;64763;48.928;8.474;2022-12-18T10:30:14;44.92;;;15.73;;
76065;SDS011;64763;48.928;8.474;2022-12-18T10:32:45;41.88;;;17.33;;
76065;SDS011;64763;48.928;8.474;2022-12-18T10:35:18;49.15;;;17.17;;
76065;SDS011;64763;48.928;8.474;2022-12-18T10:38:05;50.42;;;18.48;;
76065;SDS011;64763;48.928;8.474;2022-12-18T10:43:19;50.03;;;16.88;;
76065;SDS011;64763;48.928;8.474;2022-12-18T10:48:26;44.08;;;17.02;;
76065;SDS011;64763;48.928;8.474;2022-12-18T10:50:52;41.38;;;17.20;;
76065;SDS011;64763;48.928;8.474;2022-12-18T10:53:23;49.20;;;17.75;;
76065;SDS011;64763;48.928;8.474;2022-12-18T10:55:49;53.67;;;20.05;;
76065;SDS011;64763;48.928;8.474;2022-12-18T10:58:24;44.78;;;17.10;;
76065;SDS011;64763;48.928;8.474;2022-12-18T11:01:04;50.85;;;18.70;;
76065;SDS011;64763;48.928;8.474;2022-12-18T11:03:40;57.45;;;21.25;;
76065;SDS011;64763;48.928;8.474;2022-12-18T11:06:20;48.63;;;20.05;;
76065;SDS011;64763;48.928;8.474;2022-12-18T11:08:58;54.05;;;20.17;;
76065;SDS011;64763;48.928;8.474;2022-12-18T11:11:53;53.25;;;19.73;;
76065;SDS011;64763;48.928;8.474;2022-12-18T11:14:24;44.63;;;16.73;;
76065;SDS011;64763;48.928;8.474;2022-12-18T11:16:51;55.92;;;18.77;;
76065;SDS011;64763;48.928;8.474;2022-12-18T11:21:55;44.78;;;16.92;;
76065;SDS011;64763;48.928;8.474;2022-12-18T11:26:49;41.55;;;17.48;;
76065;SDS011;64763;48.928;8.474;2022-12-18T11:31:47;40.22;;;16.58;;
76065;SDS011;64763;48.928;8.474;2022-12-18T11:36:41;34.70;;;15.70;;
76065;SDS011;64763;48.928;8.474;2022-12-18T11:39:30;47.15;;;18.67;;
76065;SDS011;64763;48.928;8.474;2022-12-18T11:42:04;42.40;;;18.45;;
76065;SDS011;64763;48.928;8.474;2022-12-18T11:44:48;43.78;;;17.58;;
76065;SDS011;64763;48.928;8.474;2022-12-18T11:47:22;43.75;;;20.02;;
76065;SDS011;64763;48.928;8.474;2022-12-18T11:49:53;41.30;;;18.08;;
76065;SDS011;64763;48.928;8.474;2022-12-18T11:52:24;46.25;;;19.30;;
76065;SDS011;64763;48.928;8.474;2022-12-18T11:55:00;44.83;;;17.95;;
76065;SDS011;64763;48.928;8.474;2022-12-18T11:57:39;48.45;;;20.10;;
76065;SDS011;64763;48.928;8.474;2022-12-18T12:00:24;48.58;;;19.23;;
76065;SDS011;64763;48.928;8.474;2022-12-18T12:05:37;51.65;;;19.80;;
76065;SDS011;64763;48.928;8.474;2022-12-18T12:08:35;48.10;;;20.95;;
76065;SDS011;64763;48.928;8.474;2022-12-18T12:13:40;46.25;;;19.48;;
76065;SDS011;64763;48.928;8.474;2022-12-18T12:16:18;43.15;;;19.55;;
76065;SDS011;64763;48.928;8.474;2022-12-18T12:26:42;40.85;;;19.17;;
76065;SDS011;64763;48.928;8.474;2022-12-18T12:40:09;45.92;;;18.75;;
76065;SDS011;64763;48.928;8.474;2022-12-18T12:42:45;39.28;;;18.55;;
76065;SDS011;64763;48.928;8.474;2022-12-18T12:51:33;40.97;;;17.55;;
76065;SDS011;64763;48.928;8.474;2022-12-18T12:53:58;45.47;;;20.15;;
76065;SDS011;64763;48.928;8.474;2022-12-18T12:56:25;41.58;;;19.95;;
76065;SDS011;64763;48.928;8.474;2022-12-18T13:01:59;41.90;;;19.40;;
76065;SDS011;64763;48.928;8.474;2022-12-18T13:04:35;50.90;;;20.63;;
76065;SDS011;64763;48.928;8.474;2022-12-18T13:09:36;43.63;;;18.98;;
76065;SDS011;64763;48.928;8.474;2022-12-18T13:15:25;41.78;;;17.73;;
76065;SDS011;64763;48.928;8.474;2022-12-18T13:21:17;43.67;;;20.02;;
76065;SDS011;64763;48.928;8.474;2022-12-18T13:33:37;41.60;;;18.75;;
76065;SDS011;64763;48.928;8.474;2022-12-18T13:36:23;43.10;;;19.27;;
76065;SDS011;64763;48.928;8.474;2022-12-18T13:41:46;43.78;;;19.13;;
76065;SDS011;64763;48.928;8.474;2022-12-18T13:46:57;42.67;;;18.70;;
76065;SDS011;64763;48.928;8.474;2022-12-18T13:49:37;48.50;;;20.65;;
76065;SDS011;64763;48.928;8.474;2022-12-18T13:52:14;44.97;;;19.13;;
76065;SDS011;64763;48.928;8.474;2022-12-18T13:54:42;45.13;;;19.05;;
76065;SDS011;64763;48.928;8.474;2022-12-18T13:59:52;37.75;;;17.80;;
76065;SDS011;64763;48.928;8.474;2022-12-18T14:04:47;44.03;;;18.67;;
76065;SDS011;64763;48.928;8.474;2022-12-18T14:07:14;41.83;;;18.95;;
76065;SDS011;64763;48.928;8.474;2022-12-18T14:09:43;42.47;;;19.15;;
76065;SDS011;64763;48.928;8.474;2022-12-18T14:17:31;43.30;;;19.75;;
76065;SDS011;64763;48.928;8.474;2022-12-18T14:19:56;42.25;;;19.77;;
76065;SDS011;64763;48.928;8.474;2022-12-18T14:27:53;51.40;;;21.67;;
76065;SDS011;64763;48.928;8.474;2022-12-18T14:33:04;42.35;;;19.25;;
76065;SDS011;64763;48.928;8.474;2022-12-18T14:35:43;44.47;;;19.08;;
76065;SDS011;64763;48.928;8.474;2022-12-18T14:38:39;41.47;;;20.50;;
76065;SDS011;64763;48.928;8.474;2022-12-18T14:41:05;46.00;;;20.27;;
76065;SDS011;64763;48.928;8.474;2022-12-18T14:43:33;38.75;;;19.58;;
76065;SDS011;64763;48.928;8.474;2022-12-18T14:45:59;47.05;;;21.73;;
76065;SDS011;64763;48.928;8.474;2022-12-18T14:48:33;48.60;;;22.15;;
76065;SDS011;64763;48.928;8.474;2022-12-18T14:51:06;49.35;;;23.02;;
76065;SDS011;64763;48.928;8.474;2022-12-18T14:56:27;50.85;;;21.92;;
76065;SDS011;64763;48.928;8.474;2022-12-18T14:58:58;52.20;;;22.83;;
76065;SDS011;64763;48.928;8.474;2022-12-18T15:04:03;52.88;;;21.75;;
76065;SDS011;64763;48.928;8.474;2022-12-18T15:11:35;49.00;;;22.80;;
76065;SDS011;64763;48.928;8.474;2022-12-18T15:16:54;39.92;;;19.25;;
76065;SDS011;64763;48.928;8.474;2022-12-18T15:21:45;53.40;;;22.80;;
76065;SDS011;64763;48.928;8.474;2022-12-18T15:26:43;52.25;;;20.60;;
76065;SDS011;64763;48.928;8.474;2022-12-18T15:29:16;43.85;;;20.13;;
76065;SDS011;64763;48.928;8.474;2022-12-18T15:31:45;51.17;;;22.33;;
76065;SDS011;64763;48.928;8.474;2022-12-18T15:34:26;50.42;;;23.13;;
76065;SDS011;64763;48.928;8.474;2022-12-18T15:36:52;49.33;;;21.70;;
76065;SDS011;64763;48.928;8.474;2022-12-18T15:39:18;50.70;;;24.67;;
76065;SDS011;64763;48.928;8.474;2022-12-18T15:41:43;56.53;;;25.08;;
76065;SDS011;64763;48.928;8.474;2022-12-18T15:44:29;55.78;;;25.77;;
76065;SDS011;64763;48.928;8.474;2022-12-18T15:46:54;61.80;;;27.83;;
76065;SDS011;64763;48.928;8.474;2022-12-18T15:49:20;61.70;;;24.33;;
76065;SDS011;64763;48.928;8.474;2022-12-18T15:51:47;56.95;;;24.92;;
76065;SDS011;64763;48.928;8.474;2022-12-18T15:54:16;51.95;;;23.83;;
76065;SDS011;64763;48.928;8.474;2022-12-18T15:56:42;47.40;;;22.27;;
76065;SDS011;64763;48.928;8.474;2022-12-18T15:59:26;38.42;;;17.88;;
76065;SDS011;64763;48.928;8.474;2022-12-18T16:01:51;45.97;;;21.70;;
76065;SDS011;64763;48.928;8.474;2022-12-18T16:04:21;48.53;;;21.63;;
76065;SDS011;64763;48.928;8.474;2022-12-18T16:06:47;48.20;;;21.35;;
76065;SDS011;64763;48.928;8.474;2022-12-18T16:11:39;47.97;;;20.47;;
76065;SDS011;64763;48.928;8.474;2022-12-18T16:14:20;46.35;;;21.60;;
76065;SDS011;64763;48.928;8.474;2022-12-18T16:16:46;50.92;;;23.60;;
76065;SDS011;64763;48.928;8.474;2022-12-18T16:19:13;65.45;;;26.15;;
76065;SDS011;64763;48.928;8.474;2022-12-18T16:21:38;67.57;;;26.98;;
76065;SDS011;64763;48.928;8.474;2022-12-18T16:24:04;64.50;;;26.90;;
76065;SDS011;64763;48.928;8.474;2022-12-18T16:26:30;53.55;;;26.40;;
76065;SDS011;64763;48.928;8.474;2022-12-18T16:28:56;69.88;;;29.02;;
76065;SDS011;64763;48.928;8.474;2022-12-18T16:31:22;60.22;;;25.90;;
76065;SDS011;64763;48.928;8.474;2022-12-18T16:33:47;51.78;;;23.83;;
76065;SDS011;64763;48.928;8.474;2022-12-18T16:36:12;58.42;;;25.48;;
76065;SDS011;64763;48.928;8.474;2022-12-18T16:38:38;55.60;;;23.92;;
76065;SDS011;64763;48.928;8.474;2022-12-18T16:41:06;49.58;;;23.85;;
76065;SDS011;64763;48.928;8.474;2022-12-18T16:43:58;60.55;;;25.45;;
76065;SDS011;64763;48.928;8.474;2022-12-18T16:46:24;58.65;;;26.38;;
76065;SDS011;64763;48.928;8.474;2022-12-18T16:48:49;65.80;;;27.88;;
76065;SDS011;64763;48.928;8.474;2022-12-18T16:51:14;63.78;;;25.60;;
76065;SDS011;64763;48.928;8.474;2022-12-18T16:56:05;54.90;;;22.98;;
76065;SDS011;64763;48.928;8.474;2022-12-18T16:58:31;59.78;;;25.20;;
76065;SDS011;64763;48.928;8.474;2022-12-18T17:00:56;58.53;;;24.70;;
76065;SDS011;64763;48.928;8.474;2022-12-18T17:03:21;57.70;;;24.48;;
76065;SDS011;64763;48.928;8.474;2022-12-18T17:05:47;67.43;;;27.42;;
76065;SDS011;64763;48.928;8.474;2022-12-18T17:08:12;64.85;;;25.27;;
76065;SDS011;64763;48.928;8.474;2022-12-18T17:10:37;63.17;;;26.98;;
76065;SDS011;64763;48.928;8.474;2022-12-18T17:13:03;59.92;;;24.75;;
76065;SDS011;64763;48.928;8.474;2022-12-18T17:15:28;52.40;;;22.85;;
76065;SDS011;64763;48.928;8.474;2022-12-18T17:17:53;58.53;;;22.60;;
76065;SDS011;64763;48.928;8.474;2022-12-18T17:20:19;68.65;;;28.10;;